Time;durP1;ratioP1;P1;durP2;ratioP2;P2;SDS_P1;SDS_P2;PMS_P1;PMS_P2;Temp;Humidity;BMP_temperature;BMP_pressure;BME280_temperature;BME280_humidity;BME280_pressure;Samples;Min_cycle;Max_cycle;Signal;HPM_P1;HPM_P2
2020/12/01 00:01:52;;;;;;;28.10;19.63;;;;;;;4.40;100.00;100480.31;4976663;28;20993;-75
2020/12/01 00:04:18;;;;;;;31.60;21.57;;;;;;;4.41;100.00;100476.56;4960616;28;20181;-75
2020/12/01 00:06:46;;;;;;;28.07;21.03;;;;;;;4.29;100.00;100467.72;4991405;28;20221;-75
2020/12/01 00:09:15;;;;;;;27.83;20.57;;;;;;;4.36;100.00;100468.41;4976840;28;20211;-76
2020/12/01 00:11:43;;;;;;;27.73;20.40;;;;;;;4.38;100.00;100471.66;4976034;28;20236;-75
2020/12/01 00:14:11;;;;;;;29.47;21.43;;;;;;;4.23;100.00;100467.81;4993088;28;20218;-75
2020/12/01 00:16:39;;;;;;;30.17;21.43;;;;;;;4.27;100.00;100452.88;4966929;28;20205;-76
2020/12/01 00:19:05;;;;;;;30.77;21.00;;;;;;;4.28;100.00;100462.56;4976757;28;20565;-75
2020/12/01 00:21:33;;;;;;;30.23;21.00;;;;;;;4.44;100.00;100453.78;4967348;28;20225;-75
2020/12/01 00:24:01;;;;;;;30.17;21.53;;;;;;;4.48;100.00;100450.38;4976548;28;20549;-75
2020/12/01 00:26:26;;;;;;;31.73;21.47;;;;;;;4.33;100.00;100450.06;4961797;28;20225;-75
2020/12/01 00:28:52;;;;;;;30.73;21.07;;;;;;;4.42;100.00;100445.94;4979116;28;20219;-75
2020/12/01 00:31:18;;;;;;;30.33;20.90;;;;;;;4.33;100.00;100452.75;4975742;28;20226;-76
2020/12/01 00:33:44;;;;;;;29.03;20.43;;;;;;;4.28;100.00;100439.19;4960329;28;20194;-75
2020/12/01 00:36:10;;;;;;;29.27;20.77;;;;;;;4.36;100.00;100433.47;4943654;28;20256;-75
2020/12/01 00:38:38;;;;;;;28.50;20.67;;;;;;;4.28;100.00;100439.19;4959766;28;20241;-76
2020/12/01 00:41:08;;;;;;;30.00;20.87;;;;;;;4.33;100.00;100431.25;4960073;28;20221;-75
2020/12/01 00:43:33;;;;;;;28.10;20.33;;;;;;;4.36;100.00;100433.47;4967944;28;20184;-75
2020/12/01 00:45:59;;;;;;;28.50;20.30;;;;;;;4.29;100.00;100440.03;4988873;28;20221;-75
2020/12/01 00:48:30;;;;;;;30.10;20.70;;;;;;;4.23;100.00;100435.56;4963569;28;20290;-75
2020/12/01 00:50:58;;;;;;;29.87;20.93;;;;;;;4.24;100.00;100438.03;4988214;28;20233;-75
2020/12/01 00:53:24;;;;;;;30.50;20.47;;;;;;;4.33;100.00;100420.47;4976421;28;20189;-75
2020/12/01 00:55:53;;;;;;;30.10;20.30;;;;;;;4.40;100.00;100423.88;4979184;28;20276;-75
2020/12/01 00:58:19;;;;;;;29.20;20.30;;;;;;;4.37;100.00;100416.25;4979302;28;20192;-75
2020/12/01 01:01:12;;;;;;;27.97;19.77;;;;;;;4.41;100.00;100417.41;4998282;28;20228;-75
2020/12/01 01:03:40;;;;;;;28.47;21.03;;;;;;;4.25;100.00;100417.38;4979111;28;20590;-76
2020/12/01 01:06:09;;;;;;;28.03;20.10;;;;;;;4.24;100.00;100410.34;5014383;28;20724;-75
2020/12/01 01:08:38;;;;;;;27.17;19.93;;;;;;;4.27;100.00;100412.56;4982534;28;20686;-75
2020/12/01 01:11:07;;;;;;;29.83;20.60;;;;;;;4.39;100.00;100414.16;4981558;28;20290;-76
2020/12/01 01:13:33;;;;;;;28.63;20.63;;;;;;;4.38;100.00;100417.91;4978739;28;20185;-76
2020/12/01 01:16:00;;;;;;;28.30;20.50;;;;;;;4.43;100.00;100420.72;4969961;28;20208;-75
2020/12/01 01:18:26;;;;;;;26.50;20.10;;;;;;;4.38;100.00;100407.16;4946353;28;20201;-76
2020/12/01 01:20:51;;;;;;;27.27;19.67;;;;;;;4.37;100.00;100418.16;4971476;28;20726;-75
2020/12/01 01:23:19;;;;;;;28.80;20.57;;;;;;;4.32;100.00;100413.50;4959531;28;20687;-75
2020/12/01 01:25:45;;;;;;;27.27;20.67;;;;;;;4.26;100.00;100409.03;4946517;28;20320;-75
2020/12/01 01:28:13;;;;;;;24.87;19.60;;;;;;;4.36;100.00;100414.66;4975043;28;20279;-76
2020/12/01 01:30:40;;;;;;;29.80;20.63;;;;;;;4.33;100.00;100414.31;4962148;28;20224;-75
2020/12/01 01:33:07;;;;;;;26.93;19.87;;;;;;;4.36;100.00;100414.66;4979204;28;20604;-76
2020/12/01 01:35:35;;;;;;;27.20;20.30;;;;;;;4.39;100.00;100414.16;4961710;28;20217;-75
2020/12/01 01:38:05;;;;;;;27.57;20.00;;;;;;;4.44;100.00;100419.63;5011514;28;20609;-76
2020/12/01 01:40:37;;;;;;;28.90;20.70;;;;;;;4.49;100.00;100414.38;4994072;28;20232;-76
2020/12/01 01:43:05;;;;;;;28.27;20.00;;;;;;;4.46;100.00;100406.78;4983610;28;20193;-75
2020/12/01 01:45:34;;;;;;;27.43;20.53;;;;;;;4.55;100.00;100408.03;5012253;28;20326;-75
2020/12/01 01:48:00;;;;;;;26.37;19.77;;;;;;;4.42;100.00;100408.31;4961805;28;20209;-75
2020/12/01 01:50:29;;;;;;;28.10;20.07;;;;;;;4.59;100.00;100414.56;4977559;28;20220;-76
2020/12/01 01:52:56;;;;;;;27.53;19.13;;;;;;;4.38;100.00;100407.16;4978610;28;20177;-75
2020/12/01 01:55:29;;;;;;;27.83;20.10;;;;;;;4.54;100.00;100409.06;4959877;28;20184;-75
2020/12/01 01:58:00;;;;;;;26.80;19.67;;;;;;;4.43;100.00;100409.97;4977783;28;20728;-75
2020/12/01 02:00:53;;;;;;;25.00;19.10;;;;;;;4.52;100.00;100405.00;4971990;28;20222;-75
2020/12/01 02:03:35;;;;;;;27.27;18.63;;;;;;;4.54;100.00;100401.00;4994057;28;20200;-76
2020/12/01 02:06:07;;;;;;;26.13;19.53;;;;;;;4.40;100.00;100396.19;4977726;28;20225;-75
2020/12/01 02:08:35;;;;;;;25.93;19.50;;;;;;;4.41;100.00;100390.53;4961923;28;20212;-75
2020/12/01 02:11:01;;;;;;;27.03;19.93;;;;;;;4.33;100.00;100390.13;4971792;28;20225;-75
2020/12/01 02:13:44;;;;;;;26.53;19.20;;;;;;;4.41;100.00;100390.53;4982742;28;20231;-76
2020/12/01 02:16:12;;;;;;;25.20;18.30;;;;;;;4.45;100.00;100386.34;4983277;28;20225;-75
2020/12/01 02:18:40;;;;;;;26.20;19.10;;;;;;;4.46;100.00;100395.22;4978728;28;20215;-75
2020/12/01 02:21:29;;;;;;;23.50;18.50;;;;;;;4.26;100.00;100382.16;4977245;28;20224;-75
2020/12/01 02:23:57;;;;;;;24.80;18.73;;;;;;;4.48;100.00;100383.16;4978692;28;20191;-76
2020/12/01 02:26:23;;;;;;;24.83;18.37;;;;;;;4.32;100.00;100380.41;4986449;28;20655;-76
2020/12/01 02:28:52;;;;;;;22.90;17.27;;;;;;;4.43;100.00;100383.06;4977276;28;20203;-75
2020/12/01 02:31:18;;;;;;;24.80;18.20;;;;;;;4.57;100.00;100387.09;4984041;28;20229;-75
2020/12/01 02:33:49;;;;;;;25.87;18.57;;;;;;;4.62;100.00;100385.31;4978073;28;20199;-75
2020/12/01 02:36:17;;;;;;;24.33;17.83;;;;;;;4.42;100.00;100388.69;4985412;28;20224;-75
2020/12/01 02:38:43;;;;;;;22.73;17.57;;;;;;;4.40;100.00;100378.16;4980089;28;20223;-75
2020/12/01 02:41:11;;;;;;;22.77;17.60;;;;;;;4.38;100.00;100380.28;4996919;28;20223;-75
2020/12/01 02:43:37;;;;;;;22.90;17.70;;;;;;;4.38;100.00;100382.97;5040682;28;20191;-75
2020/12/01 02:46:05;;;;;;;26.07;18.07;;;;;;;4.46;100.00;100379.88;5009914;28;20357;-75
2020/12/01 02:48:30;;;;;;;19.97;15.90;;;;;;;4.52;100.00;100380.81;4996343;28;20216;-75
2020/12/01 02:50:56;;;;;;;22.03;16.60;;;;;;;4.51;100.00;100385.38;4972155;28;20275;-76
2020/12/01 02:53:25;;;;;;;21.97;16.87;;;;;;;4.47;100.00;100389.59;4993645;28;20671;-75
2020/12/01 02:55:51;;;;;;;19.83;16.23;;;;;;;4.36;100.00;100382.38;5009200;28;20224;-75
2020/12/01 02:58:22;;;;;;;23.40;16.63;;;;;;;4.54;100.00;100379.50;4977201;28;20188;-75
2020/12/01 03:00:52;;;;;;;21.50;16.47;;;;;;;4.70;100.00;100378.72;4993130;28;20311;-75
2020/12/01 03:03:20;;;;;;;21.60;16.70;;;;;;;4.68;100.00;100383.53;5010245;28;20193;-76
2020/12/01 03:05:48;;;;;;;21.03;16.23;;;;;;;4.62;100.00;100379.13;4964643;28;20220;-75
2020/12/01 03:08:16;;;;;;;21.00;16.53;;;;;;;4.67;100.00;100371.97;4976237;28;20204;-76
2020/12/01 03:10:46;;;;;;;20.30;16.47;;;;;;;4.76;100.00;100377.75;4977518;28;20697;-75
2020/12/01 03:13:12;;;;;;;21.13;16.33;;;;;;;4.73;100.00;100378.25;5001872;28;20231;-75
2020/12/01 03:15:41;;;;;;;21.40;16.73;;;;;;;4.74;100.00;100377.19;5012400;28;20232;-75
2020/12/01 03:18:09;;;;;;;20.17;16.10;;;;;;;4.77;100.00;100371.34;4982542;28;20696;-75
2020/12/01 03:20:38;;;;;;;23.47;17.13;;;;;;;4.57;100.00;100373.66;4998144;28;20216;-75
2020/12/01 03:23:07;;;;;;;19.73;15.93;;;;;;;4.62;100.00;100376.44;4996479;28;20204;-75
2020/12/01 03:25:32;;;;;;;20.70;16.23;;;;;;;4.56;100.00;100374.72;4995631;28;20311;-75
2020/12/01 03:28:00;;;;;;;20.07;15.70;;;;;;;4.49;100.00;100371.34;4995816;28;20219;-75
2020/12/01 03:30:26;;;;;;;20.23;15.93;;;;;;;4.69;100.00;100371.75;4995757;28;20265;-75
2020/12/01 03:32:53;;;;;;;19.03;16.33;;;;;;;4.56;100.00;100366.66;4980526;28;20304;-75
2020/12/01 03:35:19;;;;;;;20.90;16.97;;;;;;;4.65;100.00;100365.19;4979515;28;20189;-75
2020/12/01 03:37:47;;;;;;;20.03;15.77;;;;;;;4.68;100.00;100364.72;4995763;28;20571;-75
2020/12/01 03:40:15;;;;;;;21.10;16.87;;;;;;;4.69;100.00;100360.97;4963342;28;20767;-75
2020/12/01 03:42:40;;;;;;;21.77;17.17;;;;;;;4.68;100.00;100362.03;4993726;28;20275;-76
2020/12/01 03:45:08;;;;;;;23.13;17.53;;;;;;;4.67;100.00;100365.75;4997118;28;20640;-76
2020/12/01 03:47:34;;;;;;;22.20;17.97;;;;;;;4.71;100.00;100366.94;4976742;28;20236;-75
2020/12/01 03:50:04;;;;;;;26.37;18.17;;;;;;;4.74;100.00;100364.56;4963257;28;20212;-75
2020/12/01 03:52:30;;;;;;;23.03;17.20;;;;;;;4.74;100.00;100366.44;4983791;28;20224;-75
2020/12/01 03:54:58;;;;;;;24.00;18.10;;;;;;;4.74;100.00;100366.44;4999903;28;20234;-75
2020/12/01 03:57:25;;;;;;;22.53;17.43;;;;;;;4.74;100.00;100369.13;4998574;28;20777;-75
2020/12/01 03:59:58;;;;;;;25.13;18.90;;;;;;;4.85;100.00;100370.94;4983222;28;20208;-75
2020/12/01 04:02:29;;;;;;;23.70;18.07;;;;;;;4.87;100.00;100368.81;4999583;28;20243;-75
2020/12/01 04:04:56;;;;;;;24.23;17.77;;;;;;;4.85;100.00;100357.47;5000355;28;20195;-75
2020/12/01 04:07:25;;;;;;;22.57;17.07;;;;;;;4.74;100.00;100369.13;4982702;28;20982;-75
2020/12/01 04:09:51;;;;;;;21.83;17.57;;;;;;;4.74;100.00;100363.75;4984236;28;20244;-75
2020/12/01 04:12:17;;;;;;;24.17;17.97;;;;;;;4.87;100.00;100364.28;4976550;28;20698;-75
2020/12/01 04:14:42;;;;;;;24.23;18.53;;;;;;;4.74;100.00;100358.34;5031825;28;20220;-75
2020/12/01 04:17:08;;;;;;;24.93;18.17;;;;;;;4.87;100.00;100358.91;4987129;28;20209;-76
2020/12/01 04:19:34;;;;;;;23.77;17.73;;;;;;;5.01;100.00;100352.13;4996000;28;20232;-75
2020/12/01 04:21:59;;;;;;;22.77;17.33;;;;;;;4.95;100.00;100361.19;5024351;28;20279;-75
2020/12/01 04:24:32;;;;;;;23.50;17.53;;;;;;;4.75;100.00;100365.38;5012563;28;20609;-75
2020/12/01 04:26:57;;;;;;;22.57;17.37;;;;;;;4.77;100.00;100364.06;4983716;28;20674;-76
2020/12/01 04:29:23;;;;;;;23.27;17.00;;;;;;;4.82;100.00;100358.78;4963575;28;20209;-75
2020/12/01 04:31:53;;;;;;;23.43;17.67;;;;;;;4.80;100.00;100365.44;4978861;28;20287;-75
2020/12/01 04:34:19;;;;;;;23.47;17.50;;;;;;;4.89;100.00;100366.69;4964332;28;20185;-75
2020/12/01 04:36:47;;;;;;;24.03;18.23;;;;;;;4.82;100.00;100363.38;4993192;28;20220;-76
2020/12/01 04:39:15;;;;;;;22.37;16.87;;;;;;;4.92;100.00;100368.91;5032592;28;20219;-75
2020/12/01 04:41:43;;;;;;;21.77;16.57;;;;;;;4.82;100.00;100371.44;4969420;28;20224;-75
2020/12/01 04:44:39;;;;;;;22.83;16.47;;;;;;;4.88;100.00;100370.47;4976504;28;20182;-75
2020/12/01 04:47:08;;;;;;;22.33;17.20;;;;;;;4.86;100.00;100372.56;4959432;28;20246;-76
2020/12/01 04:49:48;;;;;;;23.73;17.23;;;;;;;5.08;100.00;100375.13;4959896;28;20224;-75
2020/12/01 04:53:02;;;;;;;21.30;16.20;;;;;;;5.09;100.00;100379.47;4978429;28;20224;-75
2020/12/01 04:55:52;;;;;;;24.70;17.63;;;;;;;4.97;100.00;100373.31;4990707;28;20283;-75
2020/12/01 04:58:35;;;;;;;23.60;17.30;;;;;;;5.06;100.00;100385.31;4963279;28;20662;-75
2020/12/01 05:01:14;;;;;;;24.10;17.47;;;;;;;4.95;100.00;100384.59;4994916;28;20323;-76
2020/12/01 05:04:12;;;;;;;24.00;18.50;;;;;;;4.95;100.00;100381.88;4975671;28;20184;-75
2020/12/01 05:06:58;;;;;;;23.73;17.73;;;;;;;4.92;100.00;100385.06;4995566;28;20237;-75
2020/12/01 05:09:27;;;;;;;25.37;18.43;;;;;;;4.97;100.00;100392.16;4994980;28;20625;-75
2020/12/01 05:11:56;;;;;;;25.77;18.63;;;;;;;4.96;100.00;100383.50;4983328;28;20306;-76
2020/12/01 05:14:24;;;;;;;26.10;18.90;;;;;;;4.92;100.00;100385.06;4989431;28;20185;-76
2020/12/01 05:17:10;;;;;;;26.13;19.37;;;;;;;4.99;100.00;100378.47;5009113;28;20220;-75
2020/12/01 05:19:44;;;;;;;25.87;19.03;;;;;;;5.04;100.00;100383.94;5022474;28;20332;-75
2020/12/01 05:22:11;;;;;;;23.87;18.70;;;;;;;4.92;100.00;100393.13;4998038;28;20266;-75
2020/12/01 05:24:44;;;;;;;25.03;18.50;;;;;;;4.88;100.00;100386.59;5015084;28;20206;-75
2020/12/01 05:27:32;;;;;;;23.73;18.77;;;;;;;5.02;100.00;100394.13;4997362;28;20255;-76
2020/12/01 05:30:16;;;;;;;24.50;18.10;;;;;;;5.03;100.00;100395.75;4990252;28;20212;-75
2020/12/01 05:32:58;;;;;;;27.40;19.23;;;;;;;5.10;100.00;100402.59;4999113;28;20208;-75
2020/12/01 05:35:25;;;;;;;24.97;18.77;;;;;;;5.05;100.00;100404.38;4981834;28;20234;-75
2020/12/01 05:38:15;;;;;;;24.10;18.73;;;;;;;4.89;100.00;100396.28;4997707;28;20168;-76
2020/12/01 05:40:51;;;;;;;24.73;18.83;;;;;;;5.05;100.00;100405.22;4997272;28;20242;-76
2020/12/01 05:43:39;;;;;;;25.43;18.43;;;;;;;5.18;100.00;100402.22;4970415;28;20195;-76
2020/12/01 05:46:16;;;;;;;24.93;18.93;;;;;;;4.94;100.00;100402.56;4996499;28;20874;-75
2020/12/01 05:48:59;;;;;;;25.23;19.07;;;;;;;5.11;100.00;100412.31;4979445;28;20228;-75
2020/12/01 05:51:28;;;;;;;24.43;18.77;;;;;;;5.09;100.00;100406.38;4979162;28;20311;-75
2020/12/01 05:53:57;;;;;;;25.70;19.33;;;;;;;5.06;100.00;100412.22;4978525;28;20181;-75
2020/12/01 05:56:23;;;;;;;26.20;19.60;;;;;;;5.07;100.00;100410.34;4977401;28;20224;-76
2020/12/01 05:59:04;;;;;;;24.57;18.97;;;;;;;5.11;100.00;100420.41;4990725;28;20255;-74
2020/12/01 06:01:43;;;;;;;43.33;32.07;;;;;;;4.98;100.00;100425.25;4975542;28;20217;-74
2020/12/01 06:04:27;;;;;;;44.00;33.67;;;;;;;5.06;100.00;100428.38;4970037;28;20197;-75
2020/12/01 06:07:13;;;;;;;25.50;19.27;;;;;;;5.08;100.00;100431.63;4982131;28;20268;-75
2020/12/01 06:09:51;;;;;;;24.87;18.73;;;;;;;4.99;100.00;100434.97;4966702;28;20208;-75
2020/12/01 06:12:31;;;;;;;25.23;18.30;;;;;;;5.06;100.00;100439.13;4981683;28;20303;-75
2020/12/01 06:15:04;;;;;;;25.23;18.70;;;;;;;4.96;100.00;100445.38;4997238;28;20247;-76
2020/12/01 06:17:50;;;;;;;25.80;18.93;;;;;;;5.01;100.00;100441.72;4964768;28;20231;-75
2020/12/01 06:20:32;;;;;;;24.77;18.63;;;;;;;5.04;100.00;100449.34;5013626;28;20209;-75
2020/12/01 06:23:19;;;;;;;26.33;18.60;;;;;;;5.14;100.00;100452.19;4968155;28;20279;-75
2020/12/01 06:26:05;;;;;;;26.63;18.17;;;;;;;5.08;100.00;100455.03;4992391;28;20232;-76
2020/12/01 06:28:34;;;;;;;22.40;18.37;;;;;;;5.00;100.00;100461.63;5014230;28;20216;-75
2020/12/01 06:31:08;;;;;;;24.03;18.20;;;;;;;5.08;100.00;100453.16;5024691;28;20282;-74
2020/12/01 06:34:18;;;;;;;25.07;18.10;;;;;;;5.02;100.00;100458.72;4988159;28;20187;-75
2020/12/01 06:36:48;;;;;;;25.13;18.17;;;;;;;5.09;100.00;100452.13;4980879;28;20226;-75
2020/12/01 06:39:52;;;;;;;23.60;18.07;;;;;;;5.03;100.00;100455.75;4977869;28;20263;-73
2020/12/01 06:42:31;;;;;;;25.53;19.30;;;;;;;5.12;100.00;100459.69;4978541;28;20216;-73
2020/12/01 06:45:07;;;;;;;24.77;18.23;;;;;;;5.04;100.00;100452.03;4997463;28;20673;-73
2020/12/01 06:47:37;;;;;;;24.60;18.67;;;;;;;4.99;100.00;100460.00;4978574;28;20322;-72
2020/12/01 06:50:06;;;;;;;23.57;18.63;;;;;;;4.92;100.00;100468.47;4983176;28;20219;-74
2020/12/01 06:52:31;;;;;;;23.13;17.67;;;;;;;4.94;100.00;100467.16;4996311;28;20181;-74
2020/12/01 06:54:58;;;;;;;23.57;18.47;;;;;;;4.87;100.00;100468.34;4996913;28;20184;-74
2020/12/01 06:57:35;;;;;;;25.20;18.97;;;;;;;4.99;100.00;100473.44;4996304;28;20686;-73
2020/12/01 07:00:01;;;;;;;25.93;18.30;;;;;;;5.15;100.00;100469.19;4996647;28;20211;-73
2020/12/01 07:02:31;;;;;;;22.73;17.63;;;;;;;5.15;100.00;100469.19;4996315;28;20224;-74
2020/12/01 07:05:11;;;;;;;23.20;18.33;;;;;;;5.10;100.00;100477.97;4974769;28;20189;-73
2020/12/01 07:07:41;;;;;;;26.57;18.67;;;;;;;5.05;100.00;100479.75;4993424;28;20279;-73
2020/12/01 07:10:22;;;;;;;24.47;18.73;;;;;;;5.17;100.00;100477.81;4961539;28;20200;-73
2020/12/01 07:13:02;;;;;;;24.60;18.60;;;;;;;5.11;100.00;100479.59;4982460;28;20610;-75
2020/12/01 07:15:36;;;;;;;23.77;17.90;;;;;;;5.21;100.00;100490.53;5012436;28;20220;-73
2020/12/01 07:18:13;;;;;;;26.07;18.50;;;;;;;5.09;100.00;100489.81;5013103;28;20210;-73
2020/12/01 07:21:01;;;;;;;26.00;18.60;;;;;;;5.08;100.00;100490.84;4982100;28;20223;-73
2020/12/01 07:23:38;;;;;;;24.50;18.57;;;;;;;4.90;100.00;100492.09;5010160;28;20184;-74
2020/12/01 07:26:18;;;;;;;22.20;17.83;;;;;;;5.06;100.00;100498.34;4981046;28;20220;-73
2020/12/01 07:28:54;;;;;;;22.97;18.43;;;;;;;5.16;100.00;100506.59;4989819;28;20244;-73
2020/12/01 07:31:24;;;;;;;26.83;18.53;;;;;;;5.22;100.00;100508.34;4980736;28;20699;-74
2020/12/01 07:33:54;;;;;;;26.37;18.97;;;;;;;5.19;100.00;100514.19;5015647;28;20193;-74
2020/12/01 07:36:35;;;;;;;28.30;19.47;;;;;;;5.23;100.00;100519.91;4948533;28;20246;-74
2020/12/01 07:39:17;;;;;;;24.87;18.77;;;;;;;5.07;100.00;100524.22;4980927;28;20311;-73
2020/12/01 07:41:57;;;;;;;24.53;18.17;;;;;;;5.21;100.00;100528.22;4997274;28;20216;-74
2020/12/01 07:44:27;;;;;;;25.20;18.17;;;;;;;5.21;100.00;100527.41;4998611;28;20191;-76
2020/12/01 07:47:05;;;;;;;26.33;19.50;;;;;;;5.17;100.00;100521.69;5003157;28;20726;-73
2020/12/01 07:49:34;;;;;;;27.10;19.07;;;;;;;5.06;100.00;100525.25;5006767;28;20216;-73
2020/12/01 07:52:19;;;;;;;24.67;19.10;;;;;;;5.23;100.00;100530.69;4989254;28;20749;-73
2020/12/01 07:54:48;;;;;;;25.77;18.20;;;;;;;5.26;100.00;100535.59;4989949;28;20636;-74
2020/12/01 07:57:18;;;;;;;25.10;18.13;;;;;;;5.32;100.00;100535.44;4988276;28;20605;-75
2020/12/01 07:59:47;;;;;;;25.97;18.63;;;;;;;5.23;100.00;100544.97;4986786;28;20211;-74
2020/12/01 08:02:14;;;;;;;34.57;28.37;;;;;;;5.33;100.00;100537.09;4984950;28;20233;-74
2020/12/01 08:04:39;;;;;;;35.23;28.60;;;;;;;5.23;100.00;100550.34;4968694;28;20205;-73
2020/12/01 08:07:06;;;;;;;25.03;20.27;;;;;;;5.27;100.00;100554.19;4963859;28;20229;-74
2020/12/01 08:09:34;;;;;;;26.93;18.67;;;;;;;5.30;100.00;100545.63;4980043;28;20733;-74
2020/12/01 08:12:06;;;;;;;23.83;18.30;;;;;;;5.27;100.00;100548.00;4977787;28;20228;-74
2020/12/01 08:14:35;;;;;;;27.13;19.40;;;;;;;5.24;100.00;100552.00;4966586;28;20183;-72
2020/12/01 08:17:07;;;;;;;27.57;20.37;;;;;;;5.40;100.00;100564.66;4976141;28;20581;-73
2020/12/01 08:19:33;;;;;;;28.87;19.87;;;;;;;5.39;100.00;100565.72;4975582;28;20702;-73
2020/12/01 08:21:59;;;;;;;27.20;20.43;;;;;;;5.30;100.00;100566.38;4975998;28;20262;-74
2020/12/01 08:24:28;;;;;;;25.17;19.80;;;;;;;5.28;100.00;100569.28;4963848;28;20194;-73
2020/12/01 08:27:07;;;;;;;28.67;20.97;;;;;;;5.44;100.00;100572.03;4974392;28;20229;-73
2020/12/01 08:29:35;;;;;;;25.60;19.03;;;;;;;5.54;100.00;100582.16;4948106;28;20223;-73
2020/12/01 08:32:29;;;;;;;28.93;20.17;;;;;;;5.59;100.00;100584.97;4979566;28;20278;-73
2020/12/01 08:35:03;;;;;;;29.43;21.17;;;;;;;5.40;100.00;100586.19;4982182;28;20230;-72
2020/12/01 08:37:45;;;;;;;27.70;19.87;;;;;;;5.52;100.00;100590.50;4997940;28;20282;-73
2020/12/01 08:40:29;;;;;;;35.80;28.77;;;;;;;5.40;100.00;100602.34;5008655;28;20215;-73
2020/12/01 08:43:11;;;;;;;26.90;19.87;;;;;;;5.35;100.00;100592.31;5016518;28;20184;-72
2020/12/01 08:46:02;;;;;;;27.13;20.33;;;;;;;5.48;100.00;100610.06;5010609;28;20224;-72
2020/12/01 08:48:38;;;;;;;25.17;19.27;;;;;;;5.55;100.00;100614.25;4981835;28;20225;-72
2020/12/01 08:51:26;;;;;;;24.97;19.13;;;;;;;5.57;100.00;100609.44;4979431;28;20316;-74
2020/12/01 08:54:22;;;;;;;25.97;18.90;;;;;;;5.72;100.00;100622.38;5017430;28;20716;-74
2020/12/01 08:56:48;;;;;;;25.57;19.17;;;;;;;5.81;100.00;100622.59;4994272;28;20289;-73
2020/12/01 08:59:29;;;;;;;23.50;18.63;;;;;;;5.81;100.00;100627.97;5015118;28;20654;-74
2020/12/01 09:01:59;;;;;;;25.20;18.17;;;;;;;5.74;100.00;100631.88;5014326;28;20804;-73
2020/12/01 09:04:27;;;;;;;24.50;18.13;;;;;;;5.83;100.00;100631.25;4983058;28;20318;-73
2020/12/01 09:06:57;;;;;;;24.47;18.63;;;;;;;5.75;100.00;100630.84;4982104;28;20314;-73
2020/12/01 09:09:27;;;;;;;24.07;19.80;;;;;;;5.61;100.00;100637.53;4998986;28;20220;-73
2020/12/01 09:17:42;;;;;;;26.57;20.40;;;;;;;5.74;100.00;100653.44;4995627;28;20307;-73
2020/12/01 09:20:27;;;;;;;23.87;18.83;;;;;;;5.71;100.00;100653.06;4983677;28;20231;-73
2020/12/01 09:23:14;;;;;;;25.07;18.53;;;;;;;5.71;100.00;100655.75;4998724;28;20279;-73
2020/12/01 09:25:43;;;;;;;23.30;18.37;;;;;;;5.74;100.00;100652.63;4998011;28;20229;-73
2020/12/01 09:28:15;;;;;;;24.30;18.80;;;;;;;5.85;100.00;100656.06;4963426;28;20307;-72
2020/12/01 09:30:41;;;;;;;25.27;19.70;;;;;;;5.93;100.00;100654.84;4965040;28;20221;-74
2020/12/01 09:33:12;;;;;;;22.17;18.33;;;;;;;5.79;100.00;100651.66;4962935;28;20184;-74
2020/12/01 09:35:40;;;;;;;22.93;17.13;;;;;;;5.78;100.00;100660.78;4989442;28;20228;-74
2020/12/01 09:38:06;;;;;;;22.37;18.60;;;;;;;5.88;100.00;100661.00;5010921;28;20223;-74
2020/12/01 09:40:33;;;;;;;24.03;18.53;;;;;;;5.92;100.00;100667.53;5007869;28;20228;-71
2020/12/01 09:43:04;;;;;;;22.20;17.73;;;;;;;5.81;100.00;100676.47;4968010;28;20180;-73
2020/12/01 09:45:33;;;;;;;23.33;17.60;;;;;;;5.98;100.00;100677.34;5017424;28;20247;-74
2020/12/01 09:48:05;;;;;;;25.17;18.40;;;;;;;6.04;100.00;100672.84;5018159;28;20227;-74
2020/12/01 09:50:35;;;;;;;24.10;17.63;;;;;;;6.14;100.00;100682.75;4998860;28;20232;-72
2020/12/01 10:12:25;;;;;;;20.23;16.00;;;;;;;6.27;100.00;100693.22;4980629;28;20216;-72
2020/12/01 10:34:20;;;;;;;25.63;17.73;;;;;;;6.17;100.00;100708.41;4968248;28;20655;-72
2020/12/01 10:36:43;;;;;;;40.33;36.37;;;;;;;6.13;100.00;100712.66;4978098;28;20213;-73
2020/12/01 10:39:11;;;;;;;25.43;18.13;;;;;;;6.25;100.00;100716.13;4979856;28;20215;-74
2020/12/01 10:41:39;;;;;;;21.43;17.63;;;;;;;6.23;100.00;100718.25;4991228;28;20231;-73
2020/12/01 10:44:05;;;;;;;23.83;17.97;;;;;;;6.28;100.00;100721.00;4998863;28;20184;-72
2020/12/01 10:46:31;;;;;;;20.43;17.37;;;;;;;6.20;100.00;100724.91;4972911;28;20217;-75
2020/12/01 10:48:59;;;;;;;25.43;18.00;;;;;;;6.25;100.00;100726.91;4960800;28;20297;-73
2020/12/01 10:51:25;;;;;;;23.07;18.53;;;;;;;6.27;100.00;100727.47;4979432;28;20609;-74
2020/12/01 10:53:55;;;;;;;22.03;17.87;;;;;;;6.29;100.00;100731.56;4993283;28;20192;-73
2020/12/01 10:56:23;;;;;;;24.13;18.67;;;;;;;6.13;100.00;100740.44;4993789;28;20244;-73
2020/12/01 10:58:48;;;;;;;23.83;17.73;;;;;;;6.21;100.00;100744.63;5010002;28;20276;-73
2020/12/01 11:01:14;;;;;;;24.53;18.83;;;;;;;6.24;100.00;100736.03;4961091;28;20705;-74
2020/12/01 11:03:40;;;;;;;22.87;18.60;;;;;;;6.28;100.00;100754.22;5010503;28;20185;-75
2020/12/01 11:06:08;;;;;;;23.27;17.37;;;;;;;6.35;100.00;100749.47;4977790;28;20216;-73
2020/12/01 11:08:39;;;;;;;22.73;17.53;;;;;;;6.28;100.00;100745.28;4977538;28;20725;-73
2020/12/01 11:11:07;;;;;;;22.53;17.43;;;;;;;6.34;100.00;100741.63;5010602;28;20228;-73
2020/12/01 11:13:33;;;;;;;23.53;17.63;;;;;;;6.35;100.00;100745.94;4999678;28;20185;-73
2020/12/01 11:16:01;;;;;;;21.80;17.40;;;;;;;6.42;100.00;100750.13;4987926;28;20286;-73
2020/12/01 11:18:26;;;;;;;23.53;18.57;;;;;;;6.45;100.00;100752.34;4997137;28;20180;-73
2020/12/01 11:20:52;;;;;;;23.63;17.63;;;;;;;6.51;100.00;100754.88;4996206;28;20593;-73
2020/12/01 11:23:18;;;;;;;23.57;17.30;;;;;;;6.39;100.00;100757.88;4969296;28;20173;-73
2020/12/01 11:25:43;;;;;;;22.23;17.43;;;;;;;6.45;100.00;100759.63;5012719;28;20236;-73
2020/12/01 11:28:15;;;;;;;24.10;17.17;;;;;;;6.42;100.00;100770.91;4965014;28;20219;-73
2020/12/01 11:30:40;;;;;;;22.53;16.77;;;;;;;6.37;100.00;100770.81;5014469;28;20590;-75
2020/12/01 11:33:09;;;;;;;22.33;17.40;;;;;;;6.50;100.00;100771.31;4997451;28;20233;-73
2020/12/01 11:35:36;;;;;;;19.60;15.70;;;;;;;6.43;100.00;100772.53;5004571;28;20221;-74
2020/12/01 11:38:04;;;;;;;20.93;15.97;;;;;;;6.51;100.00;100772.97;4996208;28;20195;-73
2020/12/01 11:40:32;;;;;;;23.13;16.53;;;;;;;6.46;100.00;100772.03;4976636;28;20237;-75
2020/12/01 11:43:00;;;;;;;23.60;16.57;;;;;;;6.43;100.00;100776.06;4965865;28;20198;-73
2020/12/01 11:45:26;;;;;;;24.70;17.23;;;;;;;6.39;100.00;100776.75;5011723;28;20196;-73
2020/12/01 11:47:52;;;;;;;20.97;15.80;;;;;;;6.24;100.00;100784.56;4981627;28;20252;-75
2020/12/01 11:50:20;;;;;;;20.77;16.70;;;;;;;6.33;100.00;100783.13;4941327;28;20213;-73
2020/12/01 11:52:48;;;;;;;24.50;16.83;;;;;;;6.34;100.00;100779.41;4976921;28;20176;-73
2020/12/01 11:55:16;;;;;;;22.27;17.50;;;;;;;6.28;100.00;100780.34;4977937;28;20255;-72
2020/12/01 11:57:42;;;;;;;22.77;17.10;;;;;;;6.28;100.00;100788.44;4993213;28;20196;-73
2020/12/01 12:00:09;;;;;;;20.40;15.97;;;;;;;6.31;100.00;100791.47;5008508;28;20690;-73
2020/12/01 12:02:41;;;;;;;20.33;15.90;;;;;;;6.25;100.00;100797.00;4969302;28;20198;-72
2020/12/01 12:05:07;;;;;;;23.03;16.50;;;;;;;6.14;100.00;100795.19;4985183;28;20192;-73
2020/12/01 12:07:32;;;;;;;21.67;15.67;;;;;;;6.17;100.00;100803.63;4993304;28;20643;-74
2020/12/01 12:10:01;;;;;;;22.57;16.27;;;;;;;6.21;100.00;100796.69;5010909;28;20188;-73
2020/12/01 12:12:27;;;;;;;22.43;16.83;;;;;;;6.22;100.00;100802.88;4997446;28;20224;-73
2020/12/01 12:14:52;;;;;;;19.47;15.00;;;;;;;6.17;100.00;100811.69;5032802;28;20197;-74